Susan Ann — WCY5700 — position and weather

sailwx.info

Track history (hours):
 
Tides and Currents Weather Stations Pressure Air Temp Water Temp Dewpoint Dewpoint Depression Visibility Wind Speed Wind Dir Waves Ship Positions

Susan Ann

Owner: CROSS SOUND FERRY SERVICES INC, NEW LONDON, CT. More information available from US FCC via Universal Licensing System and Coast Guard Vessel Documentation Center.

Last reported at 2017-Apr-25 16:01 UTC. Time now 2017-Apr-25 16:34 UTC.
Position N 41°12' W 072°12'.

Length 72 m; draft 4 m.

Type: Passenger vessel. MMSI: 367354350.

Date/timePositionNaut miles runAvg speedWind from/ knotsBaromVisibWave heightAir tempDewpointWater temp
2017-Apr-25 16:01N 41°12' W 072°12'7 0.4
2017-Apr-24 23:56N 41°17' W 072°06'511.9
2017-Apr-24 23:29N 41°13' W 072°11'4 3.4
2017-Apr-24 22:14N 41°09' W 072°14'8 3.2
2017-Apr-24 19:48N 41°15' W 072°07'7 4.1
2017-Apr-24 18:14N 41°11' W 072°13'411.0
2017-Apr-24 17:54N 41°13' W 072°10'1 0.5
2017-Apr-24 15:37N 41°14' W 072°09'4 2.5
2017-Apr-24 14:03N 41°11' W 072°13'4 1.7
2017-Apr-24 11:40N 41°14' W 072°09'6 0.6
2017-Apr-24 02:02N 41°09' W 072°13'013.0
2017-Apr-24 02:00N 41°09' W 072°13'611.8
2017-Apr-24 01:28N 41°15' W 072°09'3 2.4
2017-Apr-24 00:02N 41°17' W 072°05'114.0
2017-Apr-23 23:58N 41°17' W 072°06'612.6
2017-Apr-23 23:30N 41°12' W 072°12'3 2.7
2017-Apr-23 22:17N 41°09' W 072°14'311.0
2017-Apr-23 22:00N 41°12' W 072°13'3 0.1
2017-Apr-23 00:08N 41°09' W 072°13'212.4
2017-Apr-22 23:59N 41°11' W 072°13'1 0.3
2017-Apr-22 19:55N 41°12' W 072°12'2 0.2
2017-Apr-22 11:48N 41°13' W 072°11'5 0.4
2017-Apr-21 23:57N 41°17' W 072°06'612.6
2017-Apr-21 23:26N 41°12' W 072°12'2 1.5
2017-Apr-21 22:03N 41°11' W 072°14'113.5
2017-Apr-21 21:57N 41°12' W 072°13'1 0.1
2017-Apr-21 18:01N 41°11' W 072°13'  
2017-Apr-17 02:07N 41°09' W 072°13'110.6
2017-Apr-17 02:00N 41°11' W 072°13'9 4.4
2017-Apr-16 23:57N 41°17' W 072°05'714.7
2017-Apr-16 23:30N 41°12' W 072°11'3 2.1
2017-Apr-16 22:16N 41°10' W 072°13'3 9.7
2017-Apr-16 21:58N 41°13' W 072°11'1 0.6
2017-Apr-16 19:37N 41°14' W 072°10'3 1.9
2017-Apr-16 18:03N 41°12' W 072°13'213.7
2017-Apr-16 17:54N 41°13' W 072°11'4 1.2
2017-Apr-16 14:16N 41°09' W 072°13'10 4.3
2017-Apr-16 11:59N 41°17' W 072°05'713.3
2017-Apr-16 11:28N 41°12' W 072°11'3 0.3
2017-Apr-16 00:17N 41°09' W 072°13'410.2
2017-Apr-15 23:51N 41°13' W 072°10'5 2.4
2017-Apr-15 21:49N 41°17' W 072°06'4 2.3
2017-Apr-15 19:52N 41°14' W 072°10'3 0.8
2017-Apr-15 16:01N 41°12' W 072°13'  
Track history (hours):
 
Tides and Currents Weather Stations Pressure Air Temp Water Temp Dewpoint Dewpoint Depression Visibility Wind Speed Wind Dir Waves Ship Positions

Susan Ann

Owner: CROSS SOUND FERRY SERVICES INC, NEW LONDON, CT. More information available from US FCC via Universal Licensing System and Coast Guard Vessel Documentation Center.

Last reported at 2017-Apr-25 16:01 UTC. Time now 2017-Apr-25 16:34 UTC.
Position N 41°12' W 072°12'.

Length 72 m; draft 4 m.

Type: Passenger vessel. MMSI: 367354350.

Date/timePositionNaut miles runAvg speedWind from/ knotsBaromVisibWave heightAir tempDewpointWater temp
2017-Apr-25 16:01N 41°12' W 072°12'7 0.4
2017-Apr-24 23:56N 41°17' W 072°06'511.9
2017-Apr-24 23:29N 41°13' W 072°11'4 3.4
2017-Apr-24 22:14N 41°09' W 072°14'8 3.2
2017-Apr-24 19:48N 41°15' W 072°07'7 4.1
2017-Apr-24 18:14N 41°11' W 072°13'411.0
2017-Apr-24 17:54N 41°13' W 072°10'1 0.5
2017-Apr-24 15:37N 41°14' W 072°09'4 2.5
2017-Apr-24 14:03N 41°11' W 072°13'4 1.7
2017-Apr-24 11:40N 41°14' W 072°09'6 0.6
2017-Apr-24 02:02N 41°09' W 072°13'013.0
2017-Apr-24 02:00N 41°09' W 072°13'611.8
2017-Apr-24 01:28N 41°15' W 072°09'3 2.4
2017-Apr-24 00:02N 41°17' W 072°05'114.0
2017-Apr-23 23:58N 41°17' W 072°06'612.6
2017-Apr-23 23:30N 41°12' W 072°12'3 2.7
2017-Apr-23 22:17N 41°09' W 072°14'311.0
2017-Apr-23 22:00N 41°12' W 072°13'3 0.1
2017-Apr-23 00:08N 41°09' W 072°13'212.4
2017-Apr-22 23:59N 41°11' W 072°13'1 0.3
2017-Apr-22 19:55N 41°12' W 072°12'2 0.2
2017-Apr-22 11:48N 41°13' W 072°11'5 0.4
2017-Apr-21 23:57N 41°17' W 072°06'612.6
2017-Apr-21 23:26N 41°12' W 072°12'2 1.5
2017-Apr-21 22:03N 41°11' W 072°14'113.5
2017-Apr-21 21:57N 41°12' W 072°13'1 0.1
2017-Apr-21 18:01N 41°11' W 072°13'  
2017-Apr-17 02:07N 41°09' W 072°13'110.6
2017-Apr-17 02:00N 41°11' W 072°13'9 4.4
2017-Apr-16 23:57N 41°17' W 072°05'714.7
2017-Apr-16 23:30N 41°12' W 072°11'3 2.1
2017-Apr-16 22:16N 41°10' W 072°13'3 9.7
2017-Apr-16 21:58N 41°13' W 072°11'1 0.6
2017-Apr-16 19:37N 41°14' W 072°10'3 1.9
2017-Apr-16 18:03N 41°12' W 072°13'213.7
2017-Apr-16 17:54N 41°13' W 072°11'4 1.2
2017-Apr-16 14:16N 41°09' W 072°13'10 4.3
2017-Apr-16 11:59N 41°17' W 072°05'713.3
2017-Apr-16 11:28N 41°12' W 072°11'3 0.3
2017-Apr-16 00:17N 41°09' W 072°13'410.2
2017-Apr-15 23:51N 41°13' W 072°10'5 2.4
2017-Apr-15 21:49N 41°17' W 072°06'4 2.3
2017-Apr-15 19:52N 41°14' W 072°10'3 0.8
2017-Apr-15 16:01N 41°12' W 072°13'  

Dump ship's entire track history